createdAt,value
2023-02-17T00:00:57.077Z,-4.11
2023-02-17T00:03:25.229Z,-4.09
2023-02-17T00:05:52.856Z,-4.11
2023-02-17T00:08:20.058Z,-4.10
2023-02-17T00:10:55.881Z,-4.20
2023-02-17T00:13:22.947Z,-4.18
2023-02-17T00:15:50.042Z,-4.16
2023-02-17T00:18:17.074Z,-4.50
2023-02-17T00:20:44.095Z,-3.96
2023-02-17T00:23:11.081Z,-3.99
2023-02-17T00:25:38.816Z,-3.92
2023-02-17T00:28:05.997Z,-4.08
2023-02-17T00:30:33.272Z,-4.05
2023-02-17T00:33:01.351Z,-4.05
2023-02-17T00:35:28.460Z,-4.24
2023-02-17T00:37:55.587Z,-4.23
2023-02-17T00:40:22.626Z,-4.18
2023-02-17T00:42:49.641Z,-4.13
2023-02-17T00:45:16.969Z,-4.16
2023-02-17T00:47:44.013Z,-4.17
2023-02-17T00:50:11.110Z,-4.13
2023-02-17T00:52:38.246Z,-4.13
2023-02-17T00:55:05.949Z,-4.22
2023-02-17T00:57:32.950Z,-4.94
2023-02-17T01:00:01.364Z,-4.71
2023-02-17T01:02:30.792Z,-4.21
2023-02-17T01:04:57.881Z,-4.22
2023-02-17T01:07:25.001Z,-4.11
2023-02-17T01:09:52.025Z,-4.05
2023-02-17T01:12:19.025Z,-3.97
2023-02-17T01:14:46.029Z,-4.01
2023-02-17T01:17:13.232Z,-4.07
2023-02-17T01:19:40.226Z,-3.83
2023-02-17T01:22:07.303Z,-3.93
2023-02-17T01:24:34.595Z,-4.09
2023-02-17T01:27:03.322Z,-3.97
2023-02-17T01:29:30.321Z,-3.89
2023-02-17T01:31:57.442Z,-3.97
2023-02-17T01:34:27.157Z,-4.19
2023-02-17T01:36:54.440Z,-4.03
2023-02-17T01:39:21.557Z,-3.89
2023-02-17T01:41:48.652Z,-3.95
2023-02-17T01:44:22.040Z,-3.82
2023-02-17T01:46:52.519Z,-3.88
2023-02-17T01:49:37.149Z,-3.82
2023-02-17T01:52:10.316Z,-3.79
2023-02-17T01:54:52.394Z,-3.81
2023-02-17T01:57:23.756Z,-3.99
2023-02-17T01:59:51.973Z,-3.92
2023-02-17T02:02:19.335Z,-3.85
2023-02-17T02:04:51.452Z,-3.83
2023-02-17T02:07:23.477Z,-3.88
2023-02-17T02:09:56.282Z,-3.85
2023-02-17T02:12:26.929Z,-3.89
2023-02-17T02:14:57.616Z,-3.95
2023-02-17T02:17:40.447Z,-3.80
2023-02-17T02:20:25.971Z,-3.77
2023-02-17T02:23:05.061Z,-3.79
2023-02-17T02:25:32.024Z,-3.73
2023-02-17T02:28:36.091Z,-3.64
2023-02-17T02:31:12.222Z,-3.87
2023-02-17T02:34:19.510Z,-4.04
2023-02-17T02:37:00.611Z,-4.08
2023-02-17T02:39:38.975Z,-4.05
2023-02-17T02:42:11.174Z,-4.13
2023-02-17T02:44:38.369Z,-4.18
2023-02-17T02:47:26.342Z,-4.14
2023-02-17T02:49:53.636Z,-4.11
2023-02-17T02:52:33.452Z,-4.09
2023-02-17T02:55:23.381Z,-4.16
2023-02-17T02:58:13.177Z,-4.27
2023-02-17T03:00:59.732Z,-4.20
2023-02-17T03:03:59.620Z,-4.00
2023-02-17T03:06:32.725Z,-4.09
2023-02-17T03:09:06.941Z,-3.96
2023-02-17T03:11:33.994Z,-3.98
2023-02-17T03:14:09.308Z,-4.06
2023-02-17T03:16:38.725Z,-4.05
2023-02-17T03:19:07.110Z,-4.20
2023-02-17T03:21:36.809Z,-4.16
2023-02-17T03:24:04.244Z,-4.21
2023-02-17T03:26:31.233Z,-4.61
2023-02-17T03:28:58.310Z,-4.26
2023-02-17T03:31:25.550Z,-4.19
2023-02-17T03:33:52.564Z,-4.18
2023-02-17T03:36:19.755Z,-4.16
2023-02-17T03:38:47.682Z,-4.17
2023-02-17T03:41:14.823Z,-4.34
2023-02-17T03:43:41.820Z,-4.19
2023-02-17T03:46:12.177Z,-4.11
2023-02-17T03:48:39.853Z,-4.09
2023-02-17T03:51:12.412Z,-4.29
2023-02-17T03:53:40.035Z,-4.27
2023-02-17T03:56:07.817Z,-4.33
2023-02-17T03:58:35.231Z,-4.31
2023-02-17T04:01:02.277Z,-4.23
2023-02-17T04:03:29.416Z,-4.24
2023-02-17T04:05:56.501Z,-4.27
2023-02-17T04:08:24.093Z,-4.31
2023-02-17T04:10:56.453Z,-4.37
2023-02-17T04:13:23.648Z,-4.28
2023-02-17T04:15:51.566Z,-4.48
2023-02-17T04:18:19.237Z,-4.49
2023-02-17T04:20:48.784Z,-4.53
2023-02-17T04:23:16.500Z,-4.66
2023-02-17T04:25:43.730Z,-4.54
2023-02-17T04:28:11.985Z,-4.41
2023-02-17T04:30:39.907Z,-4.34
2023-02-17T04:33:07.080Z,-4.25
2023-02-17T04:35:34.132Z,-4.21
2023-02-17T04:38:01.121Z,-4.21
2023-02-17T04:40:28.192Z,-4.07
2023-02-17T04:42:55.206Z,-4.02
2023-02-17T04:45:22.735Z,-4.00
2023-02-17T04:47:49.806Z,-3.99
2023-02-17T04:50:17.033Z,-3.96
2023-02-17T04:52:44.080Z,-4.04
2023-02-17T04:55:11.519Z,-4.10
2023-02-17T04:57:39.676Z,-4.05
2023-02-17T05:00:08.671Z,-3.99
2023-02-17T05:02:35.873Z,-3.96
2023-02-17T05:05:03.472Z,-3.93
2023-02-17T05:07:31.279Z,-3.85
2023-02-17T05:09:58.257Z,-3.80
2023-02-17T05:12:25.296Z,-3.77
2023-02-17T05:14:52.309Z,-3.81
2023-02-17T05:17:19.339Z,-3.86
2023-02-17T05:19:46.441Z,-3.82
2023-02-17T05:22:13.478Z,-3.85
2023-02-17T05:24:40.458Z,-4.14
2023-02-17T05:27:08.829Z,-3.71
2023-02-17T05:29:35.887Z,-3.89
2023-02-17T05:32:03.265Z,-3.87
2023-02-17T05:34:30.744Z,-4.13
2023-02-17T05:36:57.775Z,-4.18
2023-02-17T05:39:25.030Z,-4.13
2023-02-17T05:41:52.097Z,-4.18
2023-02-17T05:44:19.340Z,-4.16
2023-02-17T05:46:46.627Z,-4.10
2023-02-17T05:49:13.830Z,-4.03
2023-02-17T05:51:40.845Z,-4.19
2023-02-17T05:54:07.880Z,-4.01
2023-02-17T05:56:34.877Z,-4.33
2023-02-17T05:59:01.951Z,-4.02
2023-02-17T06:01:29.020Z,-3.98
2023-02-17T06:03:56.028Z,-3.99
2023-02-17T06:06:23.173Z,-3.92
2023-02-17T06:08:50.240Z,-3.91
2023-02-17T06:11:17.253Z,-3.82
2023-02-17T06:13:44.360Z,-3.73
2023-02-17T06:16:11.420Z,-3.61
2023-02-17T06:18:38.464Z,-3.50
2023-02-17T06:21:05.881Z,-3.45
2023-02-17T06:23:33.699Z,-3.60
2023-02-17T06:26:00.827Z,-3.55
2023-02-17T06:28:27.945Z,-3.33
2023-02-17T06:30:54.948Z,-3.51
2023-02-17T06:33:21.983Z,-3.55
2023-02-17T06:35:52.647Z,-3.49
2023-02-17T06:38:19.995Z,-3.49
2023-02-17T06:40:47.293Z,-3.35
2023-02-17T06:43:14.590Z,-3.55
2023-02-17T06:45:41.738Z,-3.31
2023-02-17T06:48:08.848Z,-3.35
2023-02-17T06:50:36.305Z,-3.49
2023-02-17T06:53:03.397Z,-3.36
2023-02-17T06:55:30.458Z,-3.31
2023-02-17T06:57:57.737Z,-3.37
2023-02-17T07:00:24.720Z,-3.27
2023-02-17T07:02:51.814Z,-3.39
2023-02-17T07:05:19.014Z,-3.34
2023-02-17T07:07:46.021Z,-3.19
2023-02-17T07:10:13.906Z,-3.20
2023-02-17T07:12:41.085Z,-3.12
2023-02-17T07:15:12.064Z,-4.16
2023-02-17T07:17:39.521Z,-3.12
2023-02-17T07:20:07.329Z,-3.41
2023-02-17T07:22:34.322Z,-3.37
2023-02-17T07:25:01.424Z,-3.41
2023-02-17T07:27:30.390Z,-3.18
2023-02-17T07:29:57.755Z,-3.35
2023-02-17T07:32:24.752Z,-3.14
2023-02-17T07:34:51.800Z,-3.02
2023-02-17T07:37:21.908Z,-2.86
2023-02-17T07:39:49.341Z,-2.73
2023-02-17T07:42:16.330Z,-2.70
2023-02-17T07:44:45.468Z,-2.77
2023-02-17T07:47:12.521Z,-2.62
2023-02-17T07:49:39.617Z,-2.51
2023-02-17T07:52:07.110Z,-2.52
2023-02-17T07:54:34.121Z,-2.59
2023-02-17T07:57:01.158Z,-2.41
2023-02-17T07:59:28.259Z,-2.42
2023-02-17T08:01:55.336Z,-2.62
2023-02-17T08:04:22.459Z,-2.35
2023-02-17T08:06:49.531Z,-2.27
2023-02-17T08:09:35.254Z,-2.06
2023-02-17T08:12:20.949Z,-1.90
2023-02-17T08:14:47.976Z,-2.01
2023-02-17T08:17:16.040Z,-1.89
2023-02-17T08:19:48.659Z,-1.90
2023-02-17T08:22:19.243Z,-1.96
2023-02-17T08:24:46.427Z,-1.81
2023-02-17T08:27:15.626Z,-1.82
2023-02-17T08:29:43.154Z,-1.97
2023-02-17T08:32:10.263Z,-1.75
2023-02-17T08:34:37.574Z,-1.56
2023-02-17T08:37:06.420Z,-1.45
2023-02-17T08:39:34.064Z,-1.41
2023-02-17T08:42:02.296Z,-1.22
2023-02-17T08:44:29.365Z,-1.34
2023-02-17T08:46:56.622Z,-1.22
2023-02-17T08:49:27.042Z,-1.23
2023-02-17T08:51:54.430Z,-1.14
2023-02-17T08:54:21.434Z,-0.97
2023-02-17T08:56:48.530Z,-0.95
2023-02-17T08:59:15.836Z,-0.89
2023-02-17T09:01:43.819Z,-0.83
2023-02-17T09:04:12.679Z,-1.06
2023-02-17T09:06:49.933Z,-1.00
2023-02-17T09:09:20.857Z,-0.88
2023-02-17T09:11:48.461Z,-0.74
2023-02-17T09:14:15.513Z,-0.79
2023-02-17T09:16:42.625Z,-0.58
2023-02-17T09:19:09.683Z,-0.93
2023-02-17T09:21:37.208Z,-0.89
2023-02-17T09:24:04.593Z,-1.03
2023-02-17T09:26:31.629Z,-0.96
2023-02-17T09:28:59.245Z,-0.98
2023-02-17T09:31:27.419Z,-1.28
2023-02-17T09:33:55.482Z,-1.21
2023-02-17T09:36:26.342Z,-1.53
2023-02-17T09:38:54.179Z,-1.28
2023-02-17T09:41:23.999Z,-1.20
2023-02-17T09:43:52.598Z,-1.22
2023-02-17T09:46:29.902Z,-0.98
2023-02-17T09:49:02.588Z,-0.96
2023-02-17T09:51:51.092Z,-0.96
2023-02-17T09:54:26.754Z,-0.96
2023-02-17T09:56:57.202Z,-1.03
2023-02-17T09:59:43.098Z,-1.20
2023-02-17T10:02:19.457Z,-1.12
2023-02-17T10:04:48.769Z,-1.17
2023-02-17T10:07:25.899Z,-1.30
2023-02-17T10:09:55.935Z,-1.38
2023-02-17T10:12:28.136Z,-1.28
2023-02-17T10:14:57.851Z,-1.21
2023-02-17T10:17:47.247Z,-1.46
2023-02-17T10:20:19.586Z,-1.46
2023-02-17T10:22:52.914Z,-1.64
2023-02-17T10:26:05.654Z,-1.44
2023-02-17T10:28:48.440Z,-1.59
2023-02-17T10:31:45.922Z,-1.22
2023-02-17T10:34:19.333Z,-1.47
2023-02-17T10:37:25.163Z,-1.52
2023-02-17T10:39:55.241Z,-1.78
2023-02-17T10:42:29.664Z,-1.79
2023-02-17T10:45:13.561Z,-1.92
2023-02-17T10:47:41.265Z,-1.34
2023-02-17T10:50:28.638Z,-1.50
2023-02-17T10:52:56.591Z,-1.36
2023-02-17T10:55:41.886Z,-1.56
2023-02-17T10:58:19.829Z,-1.26
2023-02-17T11:00:49.860Z,-1.98
2023-02-17T11:03:28.779Z,-1.17
2023-02-17T11:05:58.977Z,-1.15
2023-02-17T11:08:49.311Z,-1.25
2023-02-17T11:11:17.980Z,-1.12
2023-02-17T11:14:03.724Z,-1.19
2023-02-17T11:16:44.299Z,-1.42
2023-02-17T11:19:30.430Z,-1.25
2023-02-17T11:22:00.415Z,-1.04
2023-02-17T11:24:29.448Z,-0.96
2023-02-17T11:27:03.114Z,-0.86
2023-02-17T11:29:30.744Z,-0.94
2023-02-17T11:32:07.357Z,-1.17
2023-02-17T11:34:40.761Z,-1.34
2023-02-17T11:37:14.024Z,-1.10
2023-02-17T11:39:44.723Z,-1.35
2023-02-17T11:42:26.258Z,-1.32
2023-02-17T11:44:56.527Z,-1.30
2023-02-17T11:47:38.237Z,-1.08
2023-02-17T11:50:39.035Z,-1.02
2023-02-17T11:53:23.450Z,-1.03
2023-02-17T11:56:19.936Z,-0.99
2023-02-17T11:59:17.649Z,-1.41
2023-02-17T12:01:56.782Z,-1.20
2023-02-17T12:04:51.971Z,-1.35
2023-02-17T12:07:31.446Z,-1.44
2023-02-17T12:10:04.802Z,-1.31
2023-02-17T12:13:07.385Z,-1.39
2023-02-17T12:15:54.391Z,-1.38
2023-02-17T12:18:45.077Z,-1.36
2023-02-17T12:21:20.862Z,-1.52
2023-02-17T12:24:49.216Z,-1.64
2023-02-17T12:27:34.199Z,-1.75
2023-02-17T12:30:31.659Z,-1.84
2023-02-17T12:33:07.880Z,-1.74
2023-02-17T12:36:03.177Z,-1.66
2023-02-17T12:38:37.272Z,-1.70
2023-02-17T12:41:36.706Z,-1.51
2023-02-17T12:44:10.721Z,-1.60
2023-02-17T12:46:43.897Z,-1.38
2023-02-17T12:49:34.823Z,-1.30
2023-02-17T12:52:11.336Z,-1.36
2023-02-17T12:54:42.053Z,-1.36
2023-02-17T12:57:11.667Z,-1.34
2023-02-17T12:59:41.635Z,-1.34
2023-02-17T13:02:15.249Z,-1.36
2023-02-17T13:04:44.689Z,-1.45
2023-02-17T13:07:30.184Z,-1.38
2023-02-17T13:09:57.847Z,-1.42
2023-02-17T13:12:24.849Z,-1.41
2023-02-17T13:15:00.482Z,-1.52
2023-02-17T13:17:37.063Z,-1.46
2023-02-17T13:20:25.500Z,-1.53
2023-02-17T13:23:04.874Z,-1.56
2023-02-17T13:25:37.540Z,-1.49
2023-02-17T13:28:18.758Z,-1.50
2023-02-17T13:30:48.937Z,-1.57
2023-02-17T13:33:43.240Z,-1.46
2023-02-17T13:36:33.365Z,-1.39
2023-02-17T13:39:26.243Z,-1.43
2023-02-17T13:41:59.310Z,-1.83
2023-02-17T13:44:30.201Z,-1.87
2023-02-17T13:47:19.594Z,-2.06
2023-02-17T13:49:54.335Z,-1.80
2023-02-17T13:52:27.646Z,-1.76
2023-02-17T13:54:57.009Z,-1.98
2023-02-17T13:57:33.634Z,-1.87
2023-02-17T14:00:18.946Z,-1.74
2023-02-17T14:02:49.042Z,-1.79
2023-02-17T14:05:27.277Z,-2.01
2023-02-17T14:08:00.582Z,-2.24
2023-02-17T14:10:28.067Z,-2.19
2023-02-17T14:12:55.664Z,-2.12
2023-02-17T14:15:26.716Z,-2.15
2023-02-17T14:17:54.260Z,-2.07
2023-02-17T14:20:39.410Z,-2.02
2023-02-17T14:23:14.257Z,-2.08
2023-02-17T14:25:46.741Z,-2.06
2023-02-17T14:28:25.412Z,-2.58
2023-02-17T14:30:53.486Z,-2.04
2023-02-17T14:33:24.665Z,-2.04
2023-02-17T14:36:09.244Z,-2.03
2023-02-17T14:38:40.829Z,-2.05
2023-02-17T14:41:11.844Z,-2.06
2023-02-17T14:43:38.926Z,-2.04
2023-02-17T14:46:06.322Z,-2.09
2023-02-17T14:48:33.496Z,-2.06
2023-02-17T14:51:00.622Z,-2.11
2023-02-17T14:53:33.288Z,-2.19
2023-02-17T14:56:07.744Z,-2.15
2023-02-17T14:58:35.301Z,-2.38
2023-02-17T15:01:02.641Z,-2.19
2023-02-17T15:03:29.727Z,-2.32
2023-02-17T15:05:56.918Z,-2.45
2023-02-17T15:08:34.117Z,-2.63
2023-02-17T15:11:02.369Z,-3.49
2023-02-17T15:13:31.887Z,-2.43
2023-02-17T15:15:59.502Z,-2.35
2023-02-17T15:18:28.148Z,-2.50
2023-02-17T15:20:55.695Z,-2.50
2023-02-17T15:23:25.837Z,-2.48
2023-02-17T15:25:55.587Z,-2.51
2023-02-17T15:28:22.895Z,-2.73
2023-02-17T15:30:54.831Z,-2.63
2023-02-17T15:33:23.865Z,-2.68
2023-02-17T15:35:56.506Z,-2.67
2023-02-17T15:38:24.653Z,-2.70
2023-02-17T15:40:51.790Z,-2.63
2023-02-17T15:43:23.107Z,-2.72
2023-02-17T15:45:50.325Z,-2.79
2023-02-17T15:48:24.549Z,-2.89
2023-02-17T15:50:52.556Z,-2.68
2023-02-17T15:53:19.971Z,-2.68
2023-02-17T15:55:47.581Z,-2.71
2023-02-17T15:58:17.379Z,-2.75
2023-02-17T16:00:50.066Z,-2.96
2023-02-17T16:03:17.596Z,-2.90
2023-02-17T16:05:44.782Z,-2.81
2023-02-17T16:08:11.973Z,-2.83
2023-02-17T16:10:42.231Z,-2.93
2023-02-17T16:13:14.833Z,-2.88
2023-02-17T16:15:42.899Z,-2.94
2023-02-17T16:18:21.411Z,-2.88
2023-02-17T16:20:49.317Z,-3.06
2023-02-17T16:23:16.320Z,-3.04
2023-02-17T16:25:45.219Z,-2.99
2023-02-17T16:28:21.441Z,-3.08
2023-02-17T16:30:49.720Z,-3.13
2023-02-17T16:33:17.786Z,-3.19
2023-02-17T16:35:44.876Z,-3.32
2023-02-17T16:38:23.020Z,-3.29
2023-02-17T16:40:52.589Z,-3.36
2023-02-17T16:43:23.036Z,-3.40
2023-02-17T16:45:57.203Z,-3.44
2023-02-17T16:48:28.576Z,-3.51
2023-02-17T16:50:56.305Z,-3.61
2023-02-17T16:53:23.533Z,-3.67
2023-02-17T16:55:52.794Z,-3.70
2023-02-17T16:58:24.777Z,-3.74
2023-02-17T17:00:55.073Z,-3.71
2023-02-17T17:03:22.793Z,-3.76
2023-02-17T17:05:52.326Z,-4.07
2023-02-17T17:08:21.597Z,-3.71
2023-02-17T17:10:49.589Z,-3.73
2023-02-17T17:13:16.852Z,-3.77
2023-02-17T17:15:45.604Z,-3.80
2023-02-17T17:18:21.451Z,-3.83
2023-02-17T17:20:49.037Z,-4.01
2023-02-17T17:23:16.617Z,-3.94
2023-02-17T17:25:46.742Z,-4.22
2023-02-17T17:28:16.251Z,-4.05
2023-02-17T17:30:43.597Z,-4.01
2023-02-17T17:33:10.710Z,-4.03
2023-02-17T17:35:37.918Z,-4.01
2023-02-17T17:38:05.212Z,-4.48
2023-02-17T17:40:48.722Z,-4.09
2023-02-17T17:43:18.892Z,-4.27
2023-02-17T17:45:46.995Z,-4.24
2023-02-17T17:48:15.232Z,-4.24
2023-02-17T17:50:43.236Z,-4.23
2023-02-17T17:53:10.585Z,-4.18
2023-02-17T17:55:37.840Z,-4.17
2023-02-17T17:58:05.116Z,-4.22
2023-02-17T18:00:32.338Z,-4.32
2023-02-17T18:02:59.381Z,-4.20
2023-02-17T18:05:26.538Z,-4.18
2023-02-17T18:07:53.818Z,-4.22
2023-02-17T18:10:20.961Z,-4.20
2023-02-17T18:12:48.755Z,-4.25
2023-02-17T18:15:17.378Z,-4.35
2023-02-17T18:17:46.683Z,-4.33
2023-02-17T18:20:14.578Z,-4.43
2023-02-17T18:22:41.672Z,-4.20
2023-02-17T18:25:09.404Z,-4.18
2023-02-17T18:27:41.447Z,-4.68
2023-02-17T18:30:10.294Z,-4.29
2023-02-17T18:32:37.335Z,-4.44
2023-02-17T18:35:05.236Z,-4.27
2023-02-17T18:37:33.106Z,-4.25
2023-02-17T18:40:01.246Z,-5.43
2023-02-17T18:42:30.374Z,-4.42
2023-02-17T18:44:57.412Z,-4.38
2023-02-17T18:47:24.441Z,-4.53
2023-02-17T18:49:51.992Z,-4.31
2023-02-17T18:52:19.076Z,-4.42
2023-02-17T18:54:46.253Z,-4.28
2023-02-17T18:57:13.597Z,-4.29
2023-02-17T18:59:40.610Z,-4.84
2023-02-17T19:02:10.114Z,-4.49
2023-02-17T19:04:37.177Z,-4.58
2023-02-17T19:07:07.068Z,-4.55
2023-02-17T19:09:36.440Z,-4.70
2023-02-17T19:12:04.018Z,-4.91
2023-02-17T19:14:32.349Z,-4.95
2023-02-17T19:16:59.395Z,-4.63
2023-02-17T19:19:29.338Z,-4.61
2023-02-17T19:21:56.358Z,-4.59
2023-02-17T19:24:23.581Z,-4.76
2023-02-17T19:26:50.659Z,-4.69
2023-02-17T19:29:17.819Z,-4.76
2023-02-17T19:31:44.908Z,-4.79
2023-02-17T19:34:12.177Z,-4.74
2023-02-17T19:36:39.256Z,-4.70
2023-02-17T19:39:06.357Z,-4.79
2023-02-17T19:41:35.696Z,-4.74
2023-02-17T19:44:03.089Z,-4.72
2023-02-17T19:46:30.199Z,-4.64
2023-02-17T19:48:57.256Z,-4.61
2023-02-17T19:51:24.385Z,-4.61
2023-02-17T19:53:51.504Z,-4.63
2023-02-17T19:56:20.474Z,-4.66
2023-02-17T19:58:48.456Z,-4.72
2023-02-17T20:01:19.648Z,-4.65
2023-02-17T20:03:46.759Z,-4.80
2023-02-17T20:06:17.434Z,-4.68
2023-02-17T20:08:45.964Z,-4.72
2023-02-17T20:11:14.462Z,-4.97
2023-02-17T20:13:46.177Z,-4.91
2023-02-17T20:16:15.397Z,-4.82
2023-02-17T20:18:44.954Z,-4.96
2023-02-17T20:21:15.025Z,-4.82
2023-02-17T20:23:42.330Z,-4.88
2023-02-17T20:26:13.210Z,-5.08
2023-02-17T20:28:40.677Z,-4.79
2023-02-17T20:31:08.880Z,-4.74
2023-02-17T20:33:36.498Z,-4.75
2023-02-17T20:36:05.255Z,-4.76
2023-02-17T20:38:32.639Z,-4.82
2023-02-17T20:41:00.417Z,-4.80
2023-02-17T20:43:27.591Z,-4.89
2023-02-17T20:45:54.780Z,-4.87
2023-02-17T20:48:27.516Z,-4.93
2023-02-17T20:50:56.004Z,-4.99
2023-02-17T20:53:24.096Z,-5.08
2023-02-17T20:55:51.565Z,-5.17
2023-02-17T20:58:19.084Z,-5.04
2023-02-17T21:00:46.305Z,-4.91
2023-02-17T21:03:13.420Z,-5.03
2023-02-17T21:05:40.546Z,-4.92
2023-02-17T21:08:07.763Z,-5.02
2023-02-17T21:10:35.138Z,-5.08
2023-02-17T21:13:02.236Z,-5.01
2023-02-17T21:15:29.365Z,-5.29
2023-02-17T21:17:56.410Z,-5.19
2023-02-17T21:20:24.644Z,-5.18
2023-02-17T21:22:51.818Z,-5.28
2023-02-17T21:25:19.053Z,-5.33
2023-02-17T21:27:46.162Z,-5.29
2023-02-17T21:30:14.413Z,-5.20
2023-02-17T21:32:41.803Z,-5.45
2023-02-17T21:35:10.369Z,-5.45
2023-02-17T21:37:39.128Z,-5.30
2023-02-17T21:40:10.807Z,-5.26
2023-02-17T21:42:56.720Z,-5.21
2023-02-17T21:45:24.767Z,-5.42
2023-02-17T21:47:52.043Z,-5.44
2023-02-17T21:50:19.284Z,-5.34
2023-02-17T21:52:46.370Z,-5.18
2023-02-17T21:55:13.678Z,-5.30
2023-02-17T21:57:40.829Z,-5.27
2023-02-17T22:00:09.002Z,-5.37
2023-02-17T22:02:45.009Z,-5.39
2023-02-17T22:05:12.239Z,-5.48
2023-02-17T22:07:39.261Z,-5.51
2023-02-17T22:10:06.944Z,-5.54
2023-02-17T22:12:36.553Z,-5.46
2023-02-17T22:15:05.823Z,-5.51
2023-02-17T22:17:34.964Z,-5.63
2023-02-17T22:20:03.573Z,-6.07
2023-02-17T22:22:31.038Z,-5.74
2023-02-17T22:24:58.080Z,-5.96
2023-02-17T22:27:25.152Z,-5.90
2023-02-17T22:29:52.148Z,-5.93
2023-02-17T22:32:19.167Z,-6.02
2023-02-17T22:34:46.194Z,-6.03
2023-02-17T22:37:13.345Z,-6.35
2023-02-17T22:39:40.327Z,-6.18
2023-02-17T22:42:07.299Z,-6.10
2023-02-17T22:44:34.321Z,-6.39
2023-02-17T22:47:01.391Z,-6.16
2023-02-17T22:49:28.454Z,-6.15
2023-02-17T22:51:55.449Z,-6.17
2023-02-17T22:54:22.462Z,-6.09
2023-02-17T22:56:49.532Z,-6.41
2023-02-17T22:59:16.497Z,-6.09
2023-02-17T23:01:43.505Z,-6.07
2023-02-17T23:04:13.554Z,-6.08
2023-02-17T23:06:41.544Z,-6.10
2023-02-17T23:09:12.179Z,-6.09
2023-02-17T23:11:57.787Z,-6.24
2023-02-17T23:14:36.655Z,-6.35
2023-02-17T23:17:09.595Z,-6.48
2023-02-17T23:19:38.157Z,-6.54
2023-02-17T23:22:09.241Z,-6.46
2023-02-17T23:24:36.483Z,-6.38
2023-02-17T23:27:04.451Z,-6.35
2023-02-17T23:29:32.389Z,-6.28
2023-02-17T23:31:59.797Z,-6.26
2023-02-17T23:34:28.603Z,-6.29
2023-02-17T23:36:56.056Z,-6.39
2023-02-17T23:39:23.263Z,-6.49
2023-02-17T23:41:50.307Z,-6.49
2023-02-17T23:44:17.406Z,-6.63
2023-02-17T23:46:45.208Z,-6.40
2023-02-17T23:49:18.093Z,-6.33
2023-02-17T23:51:47.285Z,-6.37
2023-02-17T23:54:51.819Z,-6.51
2023-02-17T23:57:56.504Z,-6.49
